Mountain Home Air Force Base Mountain Home US
ICAO: KMUO
IATA: MUO
Category: Large
Scheduled Services: No

Elevation: 2996 ft
TransAlt. 18000 ft.

Airport Communications:
APP:124.8
ATIS:27.35
CLNC DEL:127.1
DEP:37.12
GND:120.5
PMSV METRO:34.25
ACC COMD POST:38.13
PTD:138.9
BOISE RDO:122.6
TWR:133.85

KMUO Zoom In..

Runways:

(A) RW 12 length 13508 ft width 200 ft
ILS 110.30 / hdg 117

(B) RW 30 length 13508 ft width 200 ft
ILS 111.70 / hdg 297

Location; KMUO
Day. 26 / Time. 03.58 Zulu
* Altimeter: 29.79
* Temperature: 18° c. 64.4°f.
* Wind from: 350° Speed 16 kn.
Dewpoint: 10° c.
Visibility: 10 Statute Miles.
Clouds: Scattered 14000 ft.

KMUO 260358Z AUTO 35016KT 10SM SCT140 18/10 A2979 RMK AO2 SLP067 T01800101 $


Wind From 350°
Speed 16 kn.

 
 
jpsmedia.com for Web Design SOUNDCLOUD worldairports.se 2018   terms of use